Time;durP1;ratioP1;P1;durP2;ratioP2;P2;SDS_P1;SDS_P2;PMS_P1;PMS_P2;Temp;Humidity;BMP_temperature;BMP_pressure;BME280_temperature;BME280_humidity;BME280_pressure;Samples;Min_cycle;Max_cycle;Signal;HPM_P1;HPM_P2
2021/10/05 00:00:43;;;;;;;2.95;1.90;;;11.20;99.90;;;;;;5049480;28;20124;-75
2021/10/05 00:03:09;;;;;;;4.88;1.98;;;11.20;99.90;;;;;;5049744;28;20101;-75
2021/10/05 00:05:35;;;;;;;3.30;1.70;;;11.20;99.90;;;;;;5032583;28;20070;-75
2021/10/05 00:08:01;;;;;;;4.25;1.75;;;11.10;99.90;;;;;;5049716;28;20139;-75
2021/10/05 00:10:27;;;;;;;5.78;2.03;;;11.10;99.90;;;;;;5032523;28;20101;-75
2021/10/05 00:12:53;;;;;;;5.03;1.98;;;11.10;99.90;;;;;;5049473;28;20052;-75
2021/10/05 00:15:20;;;;;;;5.95;2.25;;;11.10;99.90;;;;;;5049520;28;20048;-75
2021/10/05 00:17:46;;;;;;;5.55;2.10;;;11.10;99.90;;;;;;5032909;28;20045;-75
2021/10/05 00:20:13;;;;;;;6.20;1.70;;;11.10;99.90;;;;;;5049872;28;20198;-75
2021/10/05 00:22:39;;;;;;;3.50;1.92;;;11.10;99.90;;;;;;5030898;28;20464;-75
2021/10/05 00:25:05;;;;;;;6.22;1.83;;;11.10;99.90;;;;;;5033034;28;20049;-75
2021/10/05 00:27:34;;;;;;;6.25;2.17;;;11.10;99.90;;;;;;5048800;28;20040;-75
2021/10/05 00:30:00;;;;;;;8.93;3.10;;;11.00;99.90;;;;;;5033239;28;20502;-75
2021/10/05 00:32:26;;;;;;;4.50;1.80;;;11.00;99.90;;;;;;5047663;28;20032;-76
2021/10/05 00:34:52;;;;;;;6.10;2.08;;;11.00;99.90;;;;;;5032528;28;21596;-75
2021/10/05 00:37:18;;;;;;;5.95;2.25;;;10.90;99.90;;;;;;5032167;28;20482;-76
2021/10/05 00:39:44;;;;;;;6.30;2.08;;;10.90;99.90;;;;;;5032403;28;20050;-76
2021/10/05 00:42:10;;;;;;;5.53;2.00;;;10.90;99.90;;;;;;5049047;28;20243;-75
2021/10/05 00:44:39;;;;;;;6.00;2.10;;;10.90;99.90;;;;;;5048396;28;20495;-75
2021/10/05 00:47:11;;;;;;;5.05;1.90;;;10.90;99.90;;;;;;5031795;28;21319;-75
2021/10/05 00:49:38;;;;;;;4.43;2.03;;;10.80;99.90;;;;;;5048753;28;20045;-75
2021/10/05 00:52:05;;;;;;;5.07;2.08;;;10.80;99.90;;;;;;5032053;28;20432;-75
2021/10/05 00:54:33;;;;;;;7.18;2.25;;;10.80;99.90;;;;;;5030368;28;20072;-76
2021/10/05 00:56:59;;;;;;;7.45;2.10;;;10.70;99.90;;;;;;5049185;28;20041;-74
2021/10/05 00:59:25;;;;;;;5.18;1.83;;;10.70;99.90;;;;;;5048494;28;20040;-74
2021/10/05 01:01:51;;;;;;;4.78;1.95;;;10.80;99.90;;;;;;5046008;28;20094;-75
2021/10/05 01:04:17;;;;;;;7.75;2.00;;;10.80;99.90;;;;;;5031837;28;20036;-75
2021/10/05 01:07:00;;;;;;;7.45;1.80;;;10.80;99.90;;;;;;5048616;28;20895;-75
2021/10/05 01:09:26;;;;;;;5.10;2.05;;;10.70;99.90;;;;;;5049081;28;20092;-75
2021/10/05 01:11:54;;;;;;;4.50;1.88;;;10.70;99.90;;;;;;5030304;28;20071;-76
2021/10/05 01:14:20;;;;;;;3.60;1.88;;;10.70;99.90;;;;;;5049362;28;20044;-75
2021/10/05 01:16:46;;;;;;;5.78;2.55;;;10.70;99.90;;;;;;5052599;28;20048;-75
2021/10/05 01:19:12;;;;;;;5.88;2.30;;;10.70;99.90;;;;;;5053704;28;20040;-75
2021/10/05 01:21:38;;;;;;;5.80;2.20;;;10.70;99.90;;;;;;5051870;28;20043;-75
2021/10/05 01:24:30;;;;;;;6.80;2.55;;;10.70;99.90;;;;;;5053192;28;20045;-75
2021/10/05 01:26:57;;;;;;;6.00;2.60;;;10.70;99.90;;;;;;5050676;28;20075;-76
2021/10/05 01:29:27;;;;;;;6.80;2.30;;;10.70;99.90;;;;;;5036575;28;20040;-75
2021/10/05 01:31:54;;;;;;;7.05;2.55;;;10.70;99.90;;;;;;5052470;28;20084;-75
2021/10/05 01:34:22;;;;;;;6.45;2.65;;;10.70;99.90;;;;;;5049657;28;20235;-75
2021/10/05 01:36:49;;;;;;;5.55;2.40;;;10.70;99.90;;;;;;5052948;28;20483;-75
2021/10/05 01:39:31;;;;;;;10.30;3.45;;;10.60;99.90;;;;;;5051062;28;20048;-76
2021/10/05 01:42:10;;;;;;;7.88;2.88;;;10.60;99.90;;;;;;5036233;28;20053;-75
2021/10/05 01:44:36;;;;;;;6.25;3.03;;;10.60;99.90;;;;;;5034031;28;20499;-75
2021/10/05 01:47:04;;;;;;;8.52;3.28;;;10.60;99.90;;;;;;5052007;28;20045;-75
2021/10/05 01:49:34;;;;;;;8.93;3.40;;;10.50;99.90;;;;;;5052086;28;20790;-75
2021/10/05 01:52:00;;;;;;;6.83;2.80;;;10.50;99.90;;;;;;5052371;28;20048;-75
2021/10/05 01:54:26;;;;;;;7.65;3.20;;;10.50;99.90;;;;;;5051924;28;20780;-74
2021/10/05 01:56:53;;;;;;;9.98;2.80;;;10.50;99.90;;;;;;5050466;28;20048;-75
2021/10/05 01:59:18;;;;;;;9.00;3.47;;;10.50;99.90;;;;;;5052578;28;20399;-75
2021/10/05 02:01:45;;;;;;;7.95;3.22;;;10.40;99.90;;;;;;5026328;28;20079;-75
2021/10/05 02:04:11;;;;;;;8.48;3.50;;;10.40;99.90;;;;;;5053401;28;20051;-75
2021/10/05 02:06:37;;;;;;;7.32;3.60;;;10.40;99.90;;;;;;5052605;28;20032;-76
2021/10/05 02:09:04;;;;;;;8.07;3.40;;;10.30;99.90;;;;;;5037227;28;20048;-75
2021/10/05 02:11:30;;;;;;;7.80;3.70;;;10.30;99.90;;;;;;5053767;28;20032;-75
2021/10/05 02:13:56;;;;;;;5.95;3.50;;;10.30;99.90;;;;;;5053391;28;20514;-75
2021/10/05 02:16:22;;;;;;;6.10;3.70;;;10.30;99.90;;;;;;5053246;28;20048;-76
2021/10/05 02:18:48;;;;;;;10.13;3.63;;;10.30;99.90;;;;;;5068724;28;20055;-75
2021/10/05 02:21:15;;;;;;;6.95;3.92;;;10.20;99.90;;;;;;5051577;28;20044;-75
2021/10/05 02:26:27;;;;;;;7.32;4.40;;;10.20;99.90;;;;;;5052117;28;20055;-75
2021/10/05 02:28:53;;;;;;;9.65;5.07;;;10.10;99.90;;;;;;5036539;28;20052;-75
2021/10/05 02:31:19;;;;;;;8.93;4.70;;;10.00;99.90;;;;;;5028701;28;20045;-74
2021/10/05 02:33:44;;;;;;;7.30;4.57;;;10.00;99.90;;;;;;5016359;28;20071;-75
2021/10/05 02:36:10;;;;;;;11.65;5.22;;;9.90;99.90;;;;;;5033231;28;20045;-75
2021/10/05 02:38:36;;;;;;;10.25;4.90;;;9.90;99.90;;;;;;5032228;28;20094;-76
2021/10/05 02:41:02;;;;;;;8.60;5.00;;;9.90;99.90;;;;;;5049548;28;20060;-75
2021/10/05 02:43:28;;;;;;;9.30;4.43;;;9.90;99.90;;;;;;5032148;28;20049;-75
2021/10/05 02:45:54;;;;;;;6.82;4.70;;;9.90;99.90;;;;;;5015925;28;20407;-75
2021/10/05 02:48:20;;;;;;;10.50;5.00;;;9.90;99.90;;;;;;5041495;28;20049;-76
2021/10/05 02:50:45;;;;;;;8.98;5.70;;;9.90;99.90;;;;;;5065780;28;20057;-75
2021/10/05 02:53:11;;;;;;;10.07;5.50;;;9.80;99.90;;;;;;5053697;28;20040;-75
2021/10/05 02:55:37;;;;;;;7.22;5.18;;;9.80;99.90;;;;;;5051883;28;20059;-75
2021/10/05 02:58:03;;;;;;;9.85;5.80;;;9.80;99.90;;;;;;5036127;28;20048;-75
2021/10/05 03:00:29;;;;;;;8.43;5.43;;;9.80;99.90;;;;;;5048468;28;20041;-75
2021/10/05 03:02:54;;;;;;;7.07;6.00;;;9.80;99.90;;;;;;5033196;28;20137;-75
2021/10/05 03:05:20;;;;;;;10.27;6.25;;;9.80;99.90;;;;;;5026454;28;20044;-75
2021/10/05 03:07:46;;;;;;;9.68;6.55;;;9.70;99.90;;;;;;5015857;28;20041;-75
2021/10/05 03:10:12;;;;;;;9.55;6.63;;;9.70;99.90;;;;;;5016151;28;20044;-75
2021/10/05 03:12:41;;;;;;;9.73;7.13;;;9.70;99.90;;;;;;5015883;28;20120;-75
2021/10/05 03:15:07;;;;;;;9.10;7.20;;;9.70;99.90;;;;;;5033194;28;20114;-76
2021/10/05 03:17:33;;;;;;;10.32;7.45;;;9.60;99.90;;;;;;5032919;28;20044;-75
2021/10/05 03:19:58;;;;;;;11.07;7.32;;;9.60;99.90;;;;;;5039737;28;20053;-76
2021/10/05 03:22:24;;;;;;;12.05;6.90;;;9.60;99.90;;;;;;5030733;28;20461;-76
2021/10/05 03:24:50;;;;;;;11.20;7.82;;;9.60;99.90;;;;;;5052931;28;20682;-76
2021/10/05 03:27:16;;;;;;;11.23;8.23;;;9.60;99.90;;;;;;5052622;28;20044;-75
2021/10/05 03:29:41;;;;;;;10.32;8.02;;;9.60;99.90;;;;;;5036068;28;20055;-75
2021/10/05 03:32:08;;;;;;;11.68;8.77;;;9.50;99.90;;;;;;5068694;28;20055;-76
2021/10/05 03:34:33;;;;;;;11.52;8.65;;;9.50;99.90;;;;;;5052300;28;20106;-75
2021/10/05 03:36:59;;;;;;;12.75;8.80;;;9.50;99.90;;;;;;5069045;28;20498;-75
2021/10/05 03:39:25;;;;;;;10.73;8.57;;;9.50;99.90;;;;;;5051185;28;20076;-75
2021/10/05 03:41:51;;;;;;;11.48;9.25;;;9.50;99.90;;;;;;5051936;28;20075;-75
2021/10/05 03:44:17;;;;;;;13.38;9.68;;;9.50;99.90;;;;;;5051040;28;20055;-75
2021/10/05 03:46:43;;;;;;;11.38;9.05;;;9.40;99.90;;;;;;5034234;28;20036;-75
2021/10/05 03:49:09;;;;;;;13.57;9.55;;;9.40;99.90;;;;;;5051911;28;20051;-75
2021/10/05 03:51:35;;;;;;;10.93;9.52;;;9.40;99.90;;;;;;5051774;28;20399;-75
2021/10/05 03:54:00;;;;;;;11.48;10.20;;;9.40;99.90;;;;;;5034872;28;20052;-75
2021/10/05 03:56:26;;;;;;;11.43;9.88;;;9.30;99.90;;;;;;5051463;28;20495;-75
2021/10/05 03:58:52;;;;;;;11.45;10.25;;;9.40;99.90;;;;;;5051151;28;20055;-75
2021/10/05 04:01:18;;;;;;;13.85;10.45;;;9.30;99.90;;;;;;5032235;28;20097;-76
2021/10/05 04:03:47;;;;;;;14.25;10.65;;;9.30;99.90;;;;;;5034728;28;20131;-75
2021/10/05 04:06:12;;;;;;;13.15;9.85;;;9.30;99.90;;;;;;5051435;28;20041;-75
2021/10/05 04:08:38;;;;;;;11.15;9.93;;;9.30;99.90;;;;;;5067934;28;20128;-75
2021/10/05 04:11:05;;;;;;;12.15;9.63;;;9.30;99.90;;;;;;5050700;28;20105;-75
2021/10/05 04:13:34;;;;;;;14.70;11.27;;;9.30;99.90;;;;;;5067603;28;20599;-75
2021/10/05 04:16:00;;;;;;;12.60;9.82;;;9.30;99.90;;;;;;5050488;28;20045;-75
2021/10/05 04:18:25;;;;;;;12.23;10.95;;;9.30;99.90;;;;;;5051314;28;20051;-75
2021/10/05 04:20:51;;;;;;;13.27;10.43;;;9.30;99.90;;;;;;5049336;28;20304;-75
2021/10/05 04:23:17;;;;;;;13.70;11.00;;;9.30;99.90;;;;;;5067710;28;20075;-75
2021/10/05 04:25:43;;;;;;;10.93;9.80;;;9.30;99.90;;;;;;5051371;28;20040;-75
2021/10/05 04:28:09;;;;;;;13.43;11.77;;;9.30;99.90;;;;;;5034372;28;20060;-75
2021/10/05 04:30:35;;;;;;;13.18;11.20;;;9.30;99.90;;;;;;5049659;28;20870;-75
2021/10/05 04:33:00;;;;;;;12.00;10.25;;;9.30;99.90;;;;;;5063141;28;20102;-75
2021/10/05 04:35:26;;;;;;;11.90;10.68;;;9.30;99.90;;;;;;5064303;28;20124;-75
2021/10/05 04:37:52;;;;;;;15.43;11.93;;;9.30;99.90;;;;;;5064190;28;20052;-75
2021/10/05 04:40:18;;;;;;;13.55;10.95;;;9.20;99.90;;;;;;5047875;28;20135;-75
2021/10/05 04:42:44;;;;;;;13.38;11.98;;;9.30;99.90;;;;;;5031290;28;20402;-75
2021/10/05 04:45:10;;;;;;;12.98;11.32;;;9.30;99.90;;;;;;5062518;28;20083;-75
2021/10/05 04:47:36;;;;;;;12.65;11.35;;;9.30;99.90;;;;;;5046137;28;20045;-75
2021/10/05 04:50:08;;;;;;;13.75;11.70;;;9.30;99.90;;;;;;5046857;28;20160;-75
2021/10/05 04:52:34;;;;;;;13.13;10.35;;;9.30;99.90;;;;;;5048036;28;20098;-74
2021/10/05 04:55:00;;;;;;;11.98;10.77;;;9.30;99.90;;;;;;5047850;28;20053;-75
2021/10/05 04:57:26;;;;;;;13.50;11.65;;;9.30;99.90;;;;;;5022489;28;20053;-75
2021/10/05 04:59:52;;;;;;;13.90;11.70;;;9.40;99.90;;;;;;5025746;28;20411;-75
2021/10/05 05:02:18;;;;;;;12.90;11.70;;;9.30;99.90;;;;;;5027607;28;20087;-75
2021/10/05 05:04:44;;;;;;;11.98;10.77;;;9.30;99.90;;;;;;5036890;28;20120;-75
2021/10/05 05:07:09;;;;;;;13.00;11.13;;;9.30;99.90;;;;;;5014651;28;20066;-75
2021/10/05 05:09:35;;;;;;;12.10;10.88;;;9.30;99.90;;;;;;5030861;28;20072;-75
2021/10/05 05:12:04;;;;;;;11.93;10.63;;;9.30;99.90;;;;;;5030393;28;20057;-75
2021/10/05 05:14:30;;;;;;;12.35;11.00;;;9.30;99.90;;;;;;5014647;28;20044;-75
2021/10/05 05:16:56;;;;;;;13.07;11.15;;;9.30;99.90;;;;;;5013186;28;20049;-75
2021/10/05 05:19:22;;;;;;;12.48;11.18;;;9.20;99.90;;;;;;5012901;28;20041;-75
2021/10/05 05:21:48;;;;;;;12.50;11.20;;;9.20;99.90;;;;;;5040810;28;20055;-75
2021/10/05 05:24:14;;;;;;;12.73;11.25;;;9.30;99.90;;;;;;5045414;28;20049;-75
2021/10/05 05:26:40;;;;;;;13.15;11.35;;;9.20;99.90;;;;;;5043524;28;20037;-75
2021/10/05 05:29:06;;;;;;;12.02;10.48;;;9.20;99.90;;;;;;5027426;28;20079;-75
2021/10/05 05:31:35;;;;;;;12.68;11.38;;;9.20;99.90;;;;;;5040870;28;20084;-75
2021/10/05 05:34:00;;;;;;;12.63;10.43;;;9.20;99.90;;;;;;5013351;28;20140;-75
2021/10/05 05:36:26;;;;;;;14.45;11.57;;;9.20;99.90;;;;;;5029047;28;20128;-75
2021/10/05 05:38:52;;;;;;;13.00;10.93;;;9.20;99.90;;;;;;5046027;28;20045;-75
2021/10/05 05:41:18;;;;;;;12.80;10.90;;;9.20;99.90;;;;;;5048164;28;20036;-75
2021/10/05 05:43:44;;;;;;;11.82;10.63;;;9.20;99.90;;;;;;5045832;28;20057;-75
2021/10/05 05:46:11;;;;;;;13.27;11.88;;;9.20;99.90;;;;;;5032110;28;20037;-75
2021/10/05 05:48:37;;;;;;;13.52;10.88;;;9.20;99.90;;;;;;5048720;28;20488;-75
2021/10/05 05:51:03;;;;;;;12.93;11.07;;;9.10;99.90;;;;;;5044611;28;20098;-75
2021/10/05 05:53:28;;;;;;;13.18;11.23;;;9.20;99.90;;;;;;5031804;28;20055;-75
2021/10/05 05:55:55;;;;;;;13.38;10.75;;;9.20;99.90;;;;;;5048115;28;20132;-75
2021/10/05 05:58:21;;;;;;;15.25;11.02;;;9.20;99.90;;;;;;5002734;28;20052;-75
2021/10/05 06:00:47;;;;;;;14.23;11.02;;;9.20;99.90;;;;;;5024457;28;20041;-75
2021/10/05 06:03:14;;;;;;;13.65;10.85;;;9.20;99.90;;;;;;5030523;28;20479;-75
2021/10/05 06:05:40;;;;;;;11.73;10.35;;;9.20;99.90;;;;;;5037082;28;20128;-74
2021/10/05 06:08:06;;;;;;;11.98;10.70;;;9.20;99.90;;;;;;5043019;28;20495;-76
2021/10/05 06:10:32;;;;;;;12.85;10.82;;;9.20;99.90;;;;;;5026511;28;20060;-75
2021/10/05 06:12:58;;;;;;;12.38;10.43;;;9.20;99.90;;;;;;5014203;28;20040;-75
2021/10/05 06:15:24;;;;;;;12.82;11.07;;;9.20;99.90;;;;;;5041617;28;20549;-74
2021/10/05 06:17:51;;;;;;;12.13;10.85;;;9.20;99.90;;;;;;5027707;28;20551;-75
2021/10/05 06:20:20;;;;;;;13.32;10.27;;;9.20;99.90;;;;;;5026943;28;20170;-74
2021/10/05 06:22:46;;;;;;;10.90;9.77;;;9.30;99.90;;;;;;5042244;28;20044;-74
2021/10/05 06:25:19;;;;;;;12.13;10.93;;;9.30;99.90;;;;;;5042043;28;20084;-74
2021/10/05 06:27:45;;;;;;;13.00;11.02;;;9.30;99.90;;;;;;5023075;28;20071;-74
2021/10/05 06:30:16;;;;;;;17.77;11.07;;;9.30;99.90;;;;;;5031015;28;20116;-74
2021/10/05 06:32:42;;;;;;;12.27;11.00;;;9.40;99.90;;;;;;5046605;28;20048;-74
2021/10/05 06:35:08;;;;;;;12.02;10.10;;;9.40;99.90;;;;;;5038710;28;20094;-74
2021/10/05 06:37:34;;;;;;;10.95;9.35;;;9.40;99.90;;;;;;5027134;28;20037;-74
2021/10/05 06:40:02;;;;;;;11.88;10.65;;;9.40;99.90;;;;;;5026217;28;20091;-74
2021/10/05 06:42:33;;;;;;;10.52;9.43;;;9.50;99.90;;;;;;4996193;28;20130;-74
2021/10/05 06:44:59;;;;;;;11.65;9.90;;;9.50;99.90;;;;;;5029473;28;20160;-74
2021/10/05 06:47:26;;;;;;;11.23;10.18;;;9.50;99.90;;;;;;5027406;28;20234;-74
2021/10/05 06:49:52;;;;;;;12.25;10.00;;;9.60;99.90;;;;;;5044935;28;20111;-74
2021/10/05 06:52:18;;;;;;;11.93;9.70;;;9.60;99.90;;;;;;5015903;28;20794;-74
2021/10/05 06:54:44;;;;;;;10.98;9.32;;;9.70;99.90;;;;;;5030449;28;20037;-74
2021/10/05 06:57:09;;;;;;;10.18;9.18;;;9.70;99.90;;;;;;5029195;28;20451;-74
2021/10/05 06:59:35;;;;;;;11.02;9.85;;;9.80;99.90;;;;;;5047542;28;20095;-75
2021/10/05 07:02:01;;;;;;;9.70;8.40;;;9.90;99.90;;;;;;5047463;28;20064;-74
2021/10/05 07:04:27;;;;;;;12.60;9.10;;;9.90;99.90;;;;;;5032817;28;20049;-73
2021/10/05 07:06:53;;;;;;;9.48;8.48;;;9.90;99.90;;;;;;5050325;28;20105;-74
2021/10/05 07:09:18;;;;;;;9.15;8.25;;;10.00;99.90;;;;;;5049775;28;20391;-74
2021/10/05 07:11:46;;;;;;;12.63;8.57;;;10.00;99.90;;;;;;5032732;28;20063;-74
2021/10/05 07:14:12;;;;;;;12.65;8.40;;;10.10;99.90;;;;;;5046258;28;20033;-73
2021/10/05 07:16:38;;;;;;;10.43;8.70;;;10.20;99.90;;;;;;5035727;28;21790;-73
2021/10/05 07:19:03;;;;;;;10.18;8.77;;;10.30;99.90;;;;;;5009878;28;20060;-74
2021/10/05 07:21:29;;;;;;;9.70;8.30;;;10.30;99.90;;;;;;5024200;28;20048;-74
2021/10/05 07:23:55;;;;;;;9.40;8.00;;;10.40;99.90;;;;;;5035379;28;20040;-74
2021/10/05 07:26:21;;;;;;;8.98;8.07;;;10.50;99.90;;;;;;5035948;28;20106;-74
2021/10/05 07:28:47;;;;;;;9.43;8.32;;;10.60;99.90;;;;;;5034054;28;20049;-75
2021/10/05 07:31:13;;;;;;;9.48;6.95;;;10.60;99.90;;;;;;5017767;28;20495;-73
2021/10/05 07:33:39;;;;;;;8.70;7.47;;;10.80;99.90;;;;;;5034427;28;20079;-73
2021/10/05 07:36:05;;;;;;;10.00;6.78;;;10.80;99.90;;;;;;5052958;28;20095;-74
2021/10/05 07:38:36;;;;;;;7.63;6.82;;;10.90;99.90;;;;;;5035944;28;20056;-75
2021/10/05 07:41:03;;;;;;;8.15;6.82;;;11.00;99.90;;;;;;5058477;28;20110;-74
2021/10/05 07:43:29;;;;;;;8.68;7.35;;;11.10;99.90;;;;;;5011887;28;20084;-74
2021/10/05 07:45:58;;;;;;;8.68;6.85;;;11.20;99.90;;;;;;4999844;28;20443;-74
2021/10/05 07:48:24;;;;;;;10.25;7.07;;;11.40;99.90;;;;;;5034190;28;20040;-74
2021/10/05 07:50:50;;;;;;;8.23;6.80;;;11.50;99.90;;;;;;5037291;28;20079;-74
2021/10/05 07:53:16;;;;;;;8.10;6.40;;;11.70;99.90;;;;;;5054683;28;20083;-74
2021/10/05 07:55:42;;;;;;;8.63;6.70;;;11.70;99.90;;;;;;5053992;28;20040;-74
2021/10/05 07:58:08;;;;;;;7.68;6.43;;;11.80;99.90;;;;;;5051694;28;21476;-74
2021/10/05 08:00:33;;;;;;;7.22;6.10;;;11.90;99.90;;;;;;5032064;28;20553;-74
2021/10/05 08:02:59;;;;;;;8.10;6.50;;;12.00;99.90;;;;;;5049888;28;20181;-74
2021/10/05 08:05:25;;;;;;;8.48;6.22;;;12.10;99.90;;;;;;5049732;28;20049;-75
2021/10/05 08:07:59;;;;;;;7.75;6.63;;;12.00;99.90;;;;;;5050123;28;20079;-75
2021/10/05 08:10:25;;;;;;;11.07;6.80;;;11.90;99.90;;;;;;5049187;28;20032;-75
2021/10/05 08:12:51;;;;;;;7.50;6.20;;;11.90;99.90;;;;;;5049879;28;20052;-75
2021/10/05 08:15:17;;;;;;;7.43;6.45;;;11.80;99.90;;;;;;5030462;28;20102;-74
2021/10/05 08:17:43;;;;;;;8.88;7.03;;;11.80;99.90;;;;;;5047693;28;20040;-74
2021/10/05 08:20:10;;;;;;;7.95;6.25;;;11.90;99.90;;;;;;5047842;28;20048;-75
2021/10/05 08:22:36;;;;;;;8.65;6.50;;;12.10;99.90;;;;;;5048228;28;20530;-74
2021/10/05 08:25:03;;;;;;;7.95;6.75;;;12.20;99.90;;;;;;5049146;28;20056;-75
2021/10/05 08:27:29;;;;;;;6.95;6.25;;;12.40;99.90;;;;;;5048922;28;20116;-74
2021/10/05 08:29:55;;;;;;;8.07;6.55;;;12.40;99.90;;;;;;5033486;28;20049;-75
2021/10/05 08:32:20;;;;;;;7.70;6.45;;;12.50;99.90;;;;;;5049616;28;20411;-74
2021/10/05 08:34:46;;;;;;;8.88;6.28;;;12.50;99.90;;;;;;5033061;28;20069;-74
2021/10/05 08:37:12;;;;;;;7.03;6.10;;;12.70;99.90;;;;;;5050593;28;20058;-75
2021/10/05 08:39:38;;;;;;;7.07;6.38;;;13.00;99.90;;;;;;5031256;28;20121;-74
2021/10/05 08:42:05;;;;;;;8.07;6.47;;;13.20;99.90;;;;;;5033467;28;20105;-74
2021/10/05 08:44:31;;;;;;;7.65;6.10;;;13.40;99.90;;;;;;5029537;28;20053;-74
2021/10/05 08:47:00;;;;;;;7.68;5.72;;;13.50;99.90;;;;;;5031694;28;20090;-74
2021/10/05 08:49:26;;;;;;;8.75;5.63;;;13.60;99.90;;;;;;5048343;28;20473;-74
2021/10/05 08:51:54;;;;;;;8.32;5.82;;;13.80;99.90;;;;;;5054619;28;20048;-74
2021/10/05 08:54:23;;;;;;;6.50;5.80;;;14.00;99.90;;;;;;5024585;28;20041;-74
2021/10/05 08:56:49;;;;;;;6.82;5.32;;;14.20;99.90;;;;;;5027513;28;20052;-75
2021/10/05 08:59:15;;;;;;;7.35;5.38;;;14.30;99.90;;;;;;5044993;28;20048;-75
2021/10/05 09:01:42;;;;;;;8.55;5.78;;;14.40;99.90;;;;;;5028311;28;20297;-74
2021/10/05 09:04:08;;;;;;;7.18;5.45;;;14.30;99.90;;;;;;5029553;28;20044;-74
2021/10/05 09:06:35;;;;;;;7.22;5.53;;;14.40;99.90;;;;;;5028058;28;20037;-74
2021/10/05 09:09:05;;;;;;;6.90;5.55;;;14.40;99.90;;;;;;5028076;28;20057;-75
2021/10/05 09:11:41;;;;;;;8.45;5.45;;;14.50;99.90;;;;;;5050189;28;20491;-75
2021/10/05 09:14:07;;;;;;;7.22;5.20;;;14.50;99.90;;;;;;5048683;28;20057;-75
2021/10/05 09:16:34;;;;;;;6.65;4.90;;;14.40;99.90;;;;;;5041735;28;20191;-74
2021/10/05 09:19:14;;;;;;;7.93;5.32;;;14.30;99.90;;;;;;5029307;28;20071;-74
2021/10/05 09:21:44;;;;;;;6.30;5.28;;;14.30;99.90;;;;;;5044401;28;20411;-74
2021/10/05 09:24:32;;;;;;;6.63;4.85;;;14.40;99.90;;;;;;5029448;28;20040;-74
2021/10/05 09:27:00;;;;;;;8.48;5.10;;;14.40;99.90;;;;;;5044388;28;20045;-74
2021/10/05 09:29:30;;;;;;;6.63;5.00;;;14.50;99.90;;;;;;5045049;28;20045;-74
2021/10/05 09:32:26;;;;;;;5.38;4.32;;;14.50;99.90;;;;;;5029255;28;20041;-74
2021/10/05 09:34:54;;;;;;;6.47;5.03;;;14.50;99.90;;;;;;4988656;28;20057;-75
2021/10/05 09:37:28;;;;;;;7.15;5.30;;;14.50;99.90;;;;;;5048745;28;20051;-74
2021/10/05 09:40:06;;;;;;;6.85;4.78;;;14.50;99.90;;;;;;5029847;28;20048;-74
2021/10/05 09:42:47;;;;;;;7.10;4.72;;;14.40;99.90;;;;;;5049292;28;20051;-74
2021/10/05 09:45:21;;;;;;;5.50;4.68;;;14.40;99.90;;;;;;5048398;28;20056;-75
2021/10/05 09:47:49;;;;;;;6.13;5.20;;;14.50;99.90;;;;;;5048702;28;20045;-74
2021/10/05 09:50:17;;;;;;;6.30;4.88;;;14.60;99.90;;;;;;5035810;28;20064;-74
2021/10/05 09:52:45;;;;;;;6.88;4.85;;;14.70;99.90;;;;;;5032547;28;20102;-74
2021/10/05 09:55:11;;;;;;;7.38;4.95;;;14.70;99.90;;;;;;5047207;28;20051;-73
2021/10/05 09:57:37;;;;;;;6.25;4.65;;;14.80;99.90;;;;;;5051080;28;20062;-74
2021/10/05 10:00:08;;;;;;;7.00;4.82;;;14.90;99.90;;;;;;5031160;28;20499;-75
2021/10/05 10:02:40;;;;;;;4.68;3.95;;;14.90;99.90;;;;;;5031787;28;20139;-74
2021/10/05 10:05:09;;;;;;;5.68;4.10;;;14.90;99.90;;;;;;5031486;28;20049;-75
2021/10/05 10:07:39;;;;;;;7.13;4.50;;;15.00;99.90;;;;;;5038535;28;20041;-75
2021/10/05 10:10:10;;;;;;;6.35;4.22;;;15.10;99.90;;;;;;5035115;28;20746;-74
2021/10/05 10:12:42;;;;;;;6.10;4.22;;;15.10;99.90;;;;;;5053867;28;20048;-73
2021/10/05 10:15:09;;;;;;;7.30;4.43;;;15.20;99.90;;;;;;5045456;28;20499;-73
2021/10/05 10:17:35;;;;;;;4.57;3.45;;;15.30;99.90;;;;;;5031899;28;20073;-73
2021/10/05 10:20:06;;;;;;;5.40;3.72;;;15.30;99.90;;;;;;5031452;28;20068;-73
2021/10/05 10:22:41;;;;;;;;;;;15.30;99.90;;;;;;5066558;28;20048;-74
2021/10/05 10:25:17;;;;;;;5.20;3.63;;;15.30;99.90;;;;;;5049368;28;20347;-74
2021/10/05 10:27:45;;;;;;;5.68;3.85;;;15.40;99.90;;;;;;5062821;28;20503;-74
2021/10/05 10:30:11;;;;;;;5.80;3.58;;;15.40;99.90;;;;;;5064886;28;20112;-74
2021/10/05 10:32:47;;;;;;;6.13;3.97;;;15.50;99.90;;;;;;5018774;28;20068;-73
2021/10/05 10:35:13;;;;;;;6.43;4.00;;;15.50;99.90;;;;;;5048247;28;20135;-74
2021/10/05 10:37:51;;;;;;;5.43;3.40;;;15.60;99.90;;;;;;5023150;28;20041;-74
2021/10/05 10:40:19;;;;;;;6.30;3.72;;;15.70;99.90;;;;;;5033283;28;20543;-74
2021/10/05 10:42:45;;;;;;;5.32;3.30;;;15.90;99.90;;;;;;5021821;28;20037;-75
2021/10/05 10:45:20;;;;;;;6.97;4.25;;;15.90;99.90;;;;;;5025875;28;20053;-74
2021/10/05 10:47:49;;;;;;;4.32;3.13;;;15.90;99.90;;;;;;5035550;28;20396;-75
2021/10/05 10:50:15;;;;;;;9.40;3.53;;;16.00;99.90;;;;;;5021676;28;20048;-74
2021/10/05 10:52:47;;;;;;;5.20;3.10;;;16.00;99.90;;;;;;5055389;28;20049;-75
2021/10/05 10:55:17;;;;;;;5.50;2.97;;;16.10;99.90;;;;;;5052421;28;20053;-75
2021/10/05 10:57:53;;;;;;;5.80;2.70;;;16.20;99.90;;;;;;5042843;28;20055;-75
2021/10/05 11:00:20;;;;;;;4.97;2.45;;;16.20;99.90;;;;;;5038144;28;20380;-74
2021/10/05 11:02:50;;;;;;;4.85;2.55;;;16.30;99.90;;;;;;5052058;28;20049;-74
2021/10/05 11:05:21;;;;;;;6.55;2.65;;;16.40;99.90;;;;;;5047725;28;20048;-74
2021/10/05 11:07:51;;;;;;;4.38;2.05;;;16.40;99.90;;;;;;5049043;28;20059;-74
2021/10/05 11:10:27;;;;;;;4.90;2.33;;;16.30;99.90;;;;;;5041423;28;20492;-74
2021/10/05 11:12:55;;;;;;;5.60;2.30;;;16.40;99.90;;;;;;5030715;28;20399;-73
2021/10/05 11:15:41;;;;;;;3.58;2.20;;;16.40;99.90;;;;;;5035001;28;20064;-74
2021/10/05 11:18:10;;;;;;;3.70;2.20;;;16.50;99.90;;;;;;5018016;28;20081;-74
2021/10/05 11:20:49;;;;;;;6.75;2.03;;;16.60;99.90;;;;;;5045315;28;20053;-73
2021/10/05 11:23:16;;;;;;;4.20;2.00;;;16.70;99.90;;;;;;5063068;28;20060;-74
2021/10/05 11:25:50;;;;;;;4.82;2.25;;;16.70;99.80;;;;;;5047450;28;20041;-75
2021/10/05 11:28:20;;;;;;;3.80;2.10;;;16.80;99.20;;;;;;5046552;28;20053;-73
2021/10/05 11:30:52;;;;;;;5.53;1.98;;;16.90;99.00;;;;;;5047147;28;20126;-74
2021/10/05 11:33:21;;;;;;;4.57;2.17;;;17.00;98.50;;;;;;5061116;28;20740;-73
2021/10/05 11:35:46;;;;;;;4.05;2.05;;;17.10;98.70;;;;;;5039186;28;20147;-75
2021/10/05 11:38:13;;;;;;;6.45;2.40;;;17.10;99.30;;;;;;5031721;28;20065;-74
2021/10/05 11:40:54;;;;;;;4.30;2.55;;;17.20;99.50;;;;;;5012083;28;20048;-74
2021/10/05 11:43:30;;;;;;;5.47;2.30;;;17.30;99.70;;;;;;5065273;28;20127;-73
2021/10/05 11:45:56;;;;;;;5.15;3.00;;;17.40;97.80;;;;;;5064167;28;20084;-74
2021/10/05 11:48:22;;;;;;;4.85;2.42;;;17.40;97.20;;;;;;5026714;28;20114;-74
2021/10/05 11:50:47;;;;;;;5.53;2.63;;;17.50;97.40;;;;;;5030737;28;20047;-74
2021/10/05 11:53:13;;;;;;;4.47;2.10;;;17.50;97.40;;;;;;5048508;28;20135;-73
2021/10/05 11:55:39;;;;;;;4.05;2.00;;;17.50;97.90;;;;;;5048047;28;20168;-74
2021/10/05 11:58:04;;;;;;;4.07;2.10;;;17.50;97.20;;;;;;5030477;28;20080;-73
2021/10/05 12:00:31;;;;;;;5.05;2.30;;;17.60;96.80;;;;;;5060581;28;20042;-73
2021/10/05 12:02:56;;;;;;;4.18;2.10;;;17.60;96.50;;;;;;5047066;28;20041;-74
2021/10/05 12:05:24;;;;;;;4.88;2.13;;;17.70;96.50;;;;;;5047971;28;20403;-74
2021/10/05 12:07:51;;;;;;;4.82;2.22;;;17.70;96.60;;;;;;5030759;28;20103;-73
2021/10/05 12:10:18;;;;;;;4.25;1.95;;;17.70;96.70;;;;;;5046434;28;20072;-73
2021/10/05 12:12:44;;;;;;;6.35;2.28;;;17.70;96.70;;;;;;5047929;28;20045;-72
2021/10/05 12:15:15;;;;;;;4.95;2.30;;;17.80;96.40;;;;;;5041166;28;20106;-72
2021/10/05 12:17:42;;;;;;;3.72;2.42;;;17.70;96.60;;;;;;5036140;28;20085;-73
2021/10/05 12:20:15;;;;;;;3.03;1.80;;;17.70;96.60;;;;;;5021817;28;20052;-73
2021/10/05 12:22:46;;;;;;;4.35;1.90;;;17.80;96.70;;;;;;5047329;28;20123;-73
2021/10/05 12:25:13;;;;;;;4.05;2.15;;;17.90;96.50;;;;;;5027432;28;20084;-73
2021/10/05 12:27:40;;;;;;;5.97;2.15;;;18.00;96.60;;;;;;5017815;28;20044;-73
2021/10/05 12:30:06;;;;;;;6.70;2.10;;;18.00;96.10;;;;;;5062690;28;20056;-73
2021/10/05 12:32:33;;;;;;;3.70;1.70;;;18.00;95.60;;;;;;5063859;28;20503;-73
2021/10/05 12:34:59;;;;;;;5.13;1.90;;;18.00;95.80;;;;;;5061296;28;21057;-72
2021/10/05 12:37:30;;;;;;;4.05;1.73;;;17.90;95.90;;;;;;5047846;28;20052;-72
2021/10/05 12:40:03;;;;;;;4.30;1.45;;;17.70;96.30;;;;;;5045665;28;20091;-72
2021/10/05 12:42:41;;;;;;;3.83;1.50;;;17.50;96.40;;;;;;5038625;28;20044;-73
2021/10/05 12:45:16;;;;;;;5.57;1.42;;;17.40;96.60;;;;;;5046564;28;20056;-73
2021/10/05 12:47:57;;;;;;;5.03;1.80;;;17.20;96.70;;;;;;5062077;28;20491;-72
2021/10/05 12:50:48;;;;;;;3.95;1.58;;;17.10;96.70;;;;;;5048357;28;20442;-72